Time;durP1;ratioP1;P1;durP2;ratioP2;P2;SDS_P1;SDS_P2;PMS_P1;PMS_P2;Temp;Humidity;BMP_temperature;BMP_pressure;BME280_temperature;BME280_humidity;BME280_pressure;Samples;Min_cycle;Max_cycle;Signal;HPM_P1;HPM_P2
2022/11/19 00:00:07;;;;;;;22.10;14.40;;;8.10;99.90;;;;;;4979843;28;20210;-57
2022/11/19 00:02:35;;;;;;;25.17;14.60;;;8.10;99.90;;;;;;4979701;28;20657;-57
2022/11/19 00:05:05;;;;;;;31.33;15.87;;;8.10;99.90;;;;;;4986168;28;20187;-57
2022/11/19 00:07:33;;;;;;;22.53;14.80;;;8.10;99.90;;;;;;4982375;28;20200;-57
2022/11/19 00:10:03;;;;;;;26.30;15.23;;;8.10;99.90;;;;;;4990131;28;20561;-57
2022/11/19 00:15:17;;;;;;;22.33;14.83;;;8.10;99.90;;;;;;5009252;28;20197;-57
2022/11/19 00:17:46;;;;;;;22.40;14.37;;;8.10;99.90;;;;;;4984394;28;20199;-57
2022/11/19 00:20:14;;;;;;;25.33;15.00;;;8.10;99.90;;;;;;4982877;28;20317;-57
2022/11/19 00:22:42;;;;;;;24.77;14.57;;;8.10;99.90;;;;;;4975789;28;20227;-57
2022/11/19 00:25:12;;;;;;;20.40;14.70;;;8.10;99.90;;;;;;4979860;28;20588;-57
2022/11/19 00:27:40;;;;;;;22.00;14.07;;;8.10;99.90;;;;;;4983926;28;20203;-57
2022/11/19 00:30:09;;;;;;;19.97;15.10;;;8.10;99.90;;;;;;4975752;28;20221;-56
2022/11/19 00:32:58;;;;;;;26.33;15.20;;;8.10;99.90;;;;;;4977901;28;20223;-57
2022/11/19 00:35:26;;;;;;;22.40;15.00;;;8.10;99.90;;;;;;4980762;28;20207;-56
2022/11/19 00:37:54;;;;;;;24.23;13.80;;;8.10;99.90;;;;;;4982807;28;20210;-56
2022/11/19 00:40:25;;;;;;;20.13;12.93;;;8.10;99.90;;;;;;4986677;28;20211;-57
2022/11/19 00:45:37;;;;;;;16.80;12.53;;;8.20;99.90;;;;;;4974885;28;20546;-58
2022/11/19 00:48:05;;;;;;;24.73;14.40;;;8.20;99.90;;;;;;4976124;28;20206;-57
2022/11/19 00:50:34;;;;;;;21.03;14.23;;;8.20;99.90;;;;;;4998926;28;20195;-57
2022/11/19 00:53:03;;;;;;;20.93;14.97;;;8.20;99.90;;;;;;4974816;28;20195;-57
2022/11/19 00:55:33;;;;;;;21.83;15.17;;;8.10;99.90;;;;;;4979217;28;20202;-57
2022/11/19 00:58:01;;;;;;;30.40;15.43;;;8.10;99.90;;;;;;4981810;28;20310;-57
2022/11/19 01:00:30;;;;;;;23.10;14.40;;;8.10;99.90;;;;;;4997233;28;20228;-56
2022/11/19 01:02:58;;;;;;;26.23;15.03;;;8.10;99.90;;;;;;4981353;28;20221;-57
2022/11/19 01:05:27;;;;;;;23.27;15.27;;;8.10;99.90;;;;;;4982760;28;20308;-57
2022/11/19 01:07:55;;;;;;;22.40;14.43;;;8.10;99.90;;;;;;5009281;28;20210;-57
2022/11/19 01:10:23;;;;;;;21.67;14.83;;;8.10;99.90;;;;;;4969446;28;20724;-57
2022/11/19 01:15:39;;;;;;;26.10;14.67;;;8.00;99.90;;;;;;4977704;28;20190;-57
2022/11/19 01:18:07;;;;;;;21.87;14.10;;;8.00;99.90;;;;;;4976436;28;20202;-57
2022/11/19 01:20:36;;;;;;;23.10;13.80;;;7.90;99.90;;;;;;4981955;28;20230;-56
2022/11/19 01:23:04;;;;;;;20.97;12.83;;;7.90;99.90;;;;;;4982324;28;20322;-57
2022/11/19 01:25:33;;;;;;;16.63;12.30;;;7.80;99.90;;;;;;4974129;28;20199;-58
2022/11/19 01:28:03;;;;;;;17.13;12.20;;;7.80;99.90;;;;;;5008272;28;20194;-57
2022/11/19 01:30:32;;;;;;;18.33;12.70;;;7.80;99.90;;;;;;4977415;28;20248;-57
2022/11/19 01:33:01;;;;;;;21.63;12.00;;;7.80;99.90;;;;;;4976515;28;20191;-56
2022/11/19 01:35:29;;;;;;;21.97;12.80;;;7.90;99.90;;;;;;4995153;28;20210;-57
2022/11/19 01:37:59;;;;;;;22.00;12.07;;;8.00;99.90;;;;;;4985244;28;20192;-56
2022/11/19 01:40:28;;;;;;;27.70;13.33;;;8.00;99.90;;;;;;4980766;28;20203;-56
2022/11/19 01:42:56;;;;;;;21.80;13.33;;;8.00;99.90;;;;;;4978012;28;20574;-57
2022/11/19 01:45:33;;;;;;;17.50;11.97;;;8.00;99.90;;;;;;4980430;28;20556;-55
2022/11/19 01:48:05;;;;;;;19.20;12.50;;;8.10;99.90;;;;;;4982555;28;20249;-57
2022/11/19 01:50:37;;;;;;;16.20;11.80;;;8.10;99.90;;;;;;4993650;28;20199;-57
2022/11/19 01:53:08;;;;;;;23.13;12.97;;;8.10;99.90;;;;;;4973110;28;20196;-56
2022/11/19 01:55:38;;;;;;;17.47;12.07;;;8.10;99.90;;;;;;4980669;28;20200;-57
2022/11/19 01:58:07;;;;;;;19.73;12.00;;;8.20;99.90;;;;;;4996485;28;20195;-56
2022/11/19 02:00:37;;;;;;;20.10;13.03;;;8.20;99.90;;;;;;4982241;28;20297;-58
2022/11/19 02:03:06;;;;;;;21.87;12.70;;;8.10;99.90;;;;;;4978399;28;20554;-56
2022/11/19 02:05:35;;;;;;;19.70;12.73;;;8.10;99.90;;;;;;4980679;28;20214;-57
2022/11/19 02:08:09;;;;;;;22.33;12.67;;;8.10;99.90;;;;;;4976672;28;20272;-55
2022/11/19 02:10:49;;;;;;;18.13;12.60;;;8.10;99.90;;;;;;4977947;28;20209;-55
2022/11/19 02:13:30;;;;;;;17.87;12.03;;;8.10;99.90;;;;;;4982292;28;20191;-57
2022/11/19 02:16:05;;;;;;;16.50;12.03;;;8.10;99.90;;;;;;4976685;28;20203;-57
2022/11/19 02:18:49;;;;;;;21.87;12.50;;;8.00;99.90;;;;;;4977567;28;20306;-57
2022/11/19 02:21:24;;;;;;;19.50;12.57;;;8.00;99.90;;;;;;4980058;28;20565;-55
2022/11/19 02:24:32;;;;;;;17.47;12.17;;;8.00;99.90;;;;;;4974126;28;20219;-56
2022/11/19 02:27:34;;;;;;;20.37;12.37;;;7.90;99.90;;;;;;4961800;28;20227;-56
2022/11/19 02:30:11;;;;;;;21.10;13.07;;;7.90;99.90;;;;;;4972031;28;20206;-57
2022/11/19 02:32:51;;;;;;;17.80;12.30;;;7.90;99.90;;;;;;4981528;28;20193;-56
2022/11/19 02:35:30;;;;;;;17.10;11.83;;;7.80;99.90;;;;;;4974621;28;20203;-57
2022/11/19 02:38:04;;;;;;;20.57;12.73;;;7.80;99.90;;;;;;4978270;28;20191;-57
2022/11/19 02:40:39;;;;;;;20.00;12.80;;;7.80;99.90;;;;;;4974420;28;20199;-56
2022/11/19 02:43:13;;;;;;;18.50;13.30;;;7.80;99.90;;;;;;4972103;28;20207;-57
2022/11/19 02:45:46;;;;;;;18.43;13.47;;;7.80;99.90;;;;;;4982876;28;20191;-57
2022/11/19 02:48:21;;;;;;;20.33;13.00;;;7.70;99.90;;;;;;4985679;28;20202;-56
2022/11/19 02:50:53;;;;;;;16.77;12.73;;;7.70;99.90;;;;;;4976762;28;20199;-56
2022/11/19 02:53:22;;;;;;;19.07;12.97;;;7.70;99.90;;;;;;4980378;28;20195;-57
2022/11/19 03:04:31;;;;;;;20.17;13.83;;;7.60;99.90;;;;;;4973712;28;20574;-57
2022/11/19 03:07:04;;;;;;;17.57;12.87;;;7.70;99.90;;;;;;4975108;28;20187;-57
2022/11/19 03:09:36;;;;;;;18.67;13.33;;;7.70;99.90;;;;;;4995429;28;21308;-57
2022/11/19 03:12:13;;;;;;;19.93;13.63;;;7.70;99.90;;;;;;4972268;28;20209;-57
2022/11/19 03:17:51;;;;;;;19.87;14.10;;;7.70;99.90;;;;;;4973208;28;20235;-57
2022/11/19 03:20:26;;;;;;;20.00;13.60;;;7.70;99.90;;;;;;4978875;28;20235;-55
2022/11/19 03:22:58;;;;;;;20.73;14.30;;;7.70;99.90;;;;;;4973998;28;20206;-55
2022/11/19 03:25:33;;;;;;;16.47;12.60;;;7.70;99.90;;;;;;4988034;28;20195;-57
2022/11/19 03:28:05;;;;;;;19.23;13.27;;;7.70;99.90;;;;;;5011521;28;20199;-57
2022/11/19 03:30:33;;;;;;;19.03;13.17;;;7.70;99.90;;;;;;4982964;28;20200;-56
2022/11/19 03:33:08;;;;;;;19.43;13.33;;;7.80;99.90;;;;;;4989641;28;20192;-57
2022/11/19 03:35:42;;;;;;;19.47;14.03;;;7.80;99.90;;;;;;4976895;28;20202;-57
2022/11/19 03:38:15;;;;;;;21.57;14.30;;;7.80;99.90;;;;;;5002833;28;20195;-57
2022/11/19 03:40:46;;;;;;;21.90;14.20;;;7.80;99.90;;;;;;4978739;28;20191;-57
2022/11/19 03:43:18;;;;;;;19.97;14.10;;;7.80;99.90;;;;;;4984619;28;20199;-56
2022/11/19 03:45:48;;;;;;;24.73;14.13;;;7.80;99.90;;;;;;4981414;28;20696;-57
2022/11/19 03:48:20;;;;;;;18.67;14.20;;;7.80;99.90;;;;;;4987476;28;20202;-56
2022/11/19 03:50:53;;;;;;;20.23;13.37;;;7.80;99.90;;;;;;4980439;28;20795;-56
2022/11/19 03:53:22;;;;;;;17.57;12.77;;;7.90;99.90;;;;;;5009435;28;20218;-54
2022/11/19 03:55:54;;;;;;;18.30;12.67;;;7.90;99.90;;;;;;4972889;28;20199;-58
2022/11/19 03:58:25;;;;;;;17.53;11.53;;;7.90;99.90;;;;;;4971130;28;20200;-57
2022/11/19 04:00:54;;;;;;;17.47;12.83;;;7.90;99.90;;;;;;4977033;28;20206;-57
2022/11/19 04:03:25;;;;;;;17.50;12.63;;;7.90;99.90;;;;;;4986690;28;20198;-56
2022/11/19 04:05:53;;;;;;;17.57;12.00;;;7.90;99.90;;;;;;4991107;28;20215;-57
2022/11/19 04:08:21;;;;;;;18.90;12.30;;;7.90;99.90;;;;;;4988778;28;20195;-57
2022/11/19 04:10:50;;;;;;;15.43;11.67;;;7.90;99.90;;;;;;4973261;28;20547;-57
2022/11/19 04:13:18;;;;;;;14.33;10.77;;;7.90;99.90;;;;;;4996183;28;20241;-55
2022/11/19 04:15:47;;;;;;;14.40;10.90;;;7.90;99.90;;;;;;4983494;28;20286;-57
2022/11/19 04:18:17;;;;;;;13.87;10.27;;;7.90;99.90;;;;;;5017013;28;20199;-56
2022/11/19 04:20:47;;;;;;;15.90;11.10;;;7.90;99.90;;;;;;4990723;28;20230;-57
2022/11/19 04:23:18;;;;;;;14.43;10.83;;;7.90;99.90;;;;;;4982502;28;20218;-56
2022/11/19 04:25:47;;;;;;;15.00;10.53;;;7.90;99.90;;;;;;4980975;28;20218;-57
2022/11/19 04:28:16;;;;;;;14.93;11.03;;;7.90;99.90;;;;;;4977552;28;20253;-57
2022/11/19 04:30:45;;;;;;;12.43;10.37;;;7.90;99.90;;;;;;4982612;28;20207;-57
2022/11/19 04:33:13;;;;;;;12.20;10.27;;;7.90;99.90;;;;;;4984219;28;20191;-56
2022/11/19 04:35:44;;;;;;;15.00;10.23;;;7.90;99.90;;;;;;4982943;28;20201;-54
2022/11/19 04:38:14;;;;;;;17.00;10.90;;;7.90;99.90;;;;;;4994721;28;20683;-56
2022/11/19 04:40:42;;;;;;;16.57;11.10;;;7.90;99.90;;;;;;4993924;28;20704;-56
2022/11/19 04:43:11;;;;;;;12.73;10.27;;;7.90;99.90;;;;;;5022581;28;20202;-55
2022/11/19 04:45:39;;;;;;;16.77;10.10;;;7.90;99.90;;;;;;4979502;28;20210;-56
2022/11/19 04:48:07;;;;;;;17.17;9.60;;;7.90;99.90;;;;;;5007764;28;20557;-57
2022/11/19 04:50:36;;;;;;;16.80;10.07;;;8.00;99.90;;;;;;4982137;28;20210;-56
2022/11/19 04:53:04;;;;;;;13.83;10.10;;;8.00;99.90;;;;;;4979333;28;20202;-58
2022/11/19 04:55:34;;;;;;;14.63;10.77;;;8.00;99.90;;;;;;4974591;28;20217;-55
2022/11/19 04:58:02;;;;;;;12.77;9.77;;;7.90;99.90;;;;;;4996761;28;20558;-56
2022/11/19 05:00:31;;;;;;;15.53;9.87;;;8.00;99.90;;;;;;4977976;28;20195;-57
2022/11/19 05:03:08;;;;;;;16.20;10.23;;;8.00;99.90;;;;;;4974927;28;20691;-57
2022/11/19 05:05:37;;;;;;;16.63;10.30;;;8.00;99.90;;;;;;4985933;28;20334;-56
2022/11/19 05:08:06;;;;;;;19.63;10.47;;;8.00;99.90;;;;;;4978176;28;20718;-57
2022/11/19 05:10:35;;;;;;;18.17;10.17;;;8.00;99.90;;;;;;4968791;28;20187;-57
2022/11/19 05:13:04;;;;;;;14.07;10.00;;;8.10;99.90;;;;;;4972974;28;20200;-57
2022/11/19 05:15:32;;;;;;;15.47;9.83;;;8.10;99.90;;;;;;4992471;28;20198;-57
2022/11/19 05:18:00;;;;;;;12.70;10.10;;;8.00;99.90;;;;;;4979929;28;20203;-55
2022/11/19 05:20:29;;;;;;;11.77;9.73;;;8.10;99.90;;;;;;4992120;28;20246;-57
2022/11/19 05:22:57;;;;;;;15.73;10.37;;;8.10;99.90;;;;;;4990097;28;20226;-57
2022/11/19 05:25:26;;;;;;;16.37;9.90;;;8.10;99.90;;;;;;4977101;28;20212;-57
2022/11/19 05:27:56;;;;;;;16.07;10.20;;;8.10;99.90;;;;;;4983511;28;20252;-57
2022/11/19 05:30:24;;;;;;;14.57;9.43;;;8.10;99.90;;;;;;4987389;28;20203;-56
2022/11/19 05:32:52;;;;;;;15.47;10.20;;;8.10;99.90;;;;;;4973816;28;20727;-58
2022/11/19 05:35:20;;;;;;;17.93;11.00;;;8.10;99.90;;;;;;4990090;28;20187;-57
2022/11/19 05:37:49;;;;;;;20.80;10.90;;;8.10;99.90;;;;;;4983210;28;20202;-56
2022/11/19 05:40:18;;;;;;;13.60;10.13;;;8.10;99.90;;;;;;4975909;28;20206;-57
2022/11/19 05:42:47;;;;;;;13.73;10.27;;;8.10;99.90;;;;;;4977011;28;20198;-57
2022/11/19 05:45:18;;;;;;;14.23;10.07;;;8.10;99.90;;;;;;4978647;28;20215;-57
2022/11/19 05:47:47;;;;;;;16.57;11.00;;;8.10;99.90;;;;;;4982271;28;20194;-57
2022/11/19 05:50:16;;;;;;;15.80;10.70;;;8.10;99.90;;;;;;4980865;28;20590;-56
2022/11/19 05:52:44;;;;;;;21.93;14.30;;;8.10;99.90;;;;;;4974217;28;20214;-56
2022/11/19 05:55:12;;;;;;;17.70;12.60;;;8.10;99.90;;;;;;4983540;28;20682;-57
2022/11/19 05:57:40;;;;;;;21.13;13.33;;;8.10;99.90;;;;;;4985354;28;20718;-56
2022/11/19 06:00:10;;;;;;;25.10;14.10;;;8.10;99.90;;;;;;4970826;28;20701;-56
2022/11/19 06:02:40;;;;;;;22.00;12.83;;;8.10;99.90;;;;;;4986919;28;20195;-55
2022/11/19 06:05:09;;;;;;;16.10;12.60;;;8.10;99.90;;;;;;4974209;28;20289;-56
2022/11/19 06:07:39;;;;;;;17.47;12.50;;;8.10;99.90;;;;;;4982059;28;20187;-57
2022/11/19 06:10:09;;;;;;;19.10;11.77;;;8.10;99.90;;;;;;4980618;28;20223;-57
2022/11/19 06:12:41;;;;;;;14.13;10.40;;;8.10;99.90;;;;;;4980283;28;20654;-56
2022/11/19 06:15:14;;;;;;;17.27;11.60;;;8.10;99.90;;;;;;4976262;28;20192;-56
2022/11/19 06:17:43;;;;;;;18.90;11.17;;;8.10;99.90;;;;;;5005973;28;20214;-56
2022/11/19 06:20:12;;;;;;;17.77;12.20;;;8.10;99.90;;;;;;4971988;28;20242;-57
2022/11/19 06:22:40;;;;;;;16.80;11.30;;;8.20;99.90;;;;;;5001323;28;20652;-56
2022/11/19 06:25:09;;;;;;;15.83;11.93;;;8.20;99.90;;;;;;4989062;28;20211;-56
2022/11/19 06:27:37;;;;;;;15.00;11.73;;;8.20;99.90;;;;;;4979275;28;20757;-56
2022/11/19 06:30:07;;;;;;;14.70;11.20;;;8.20;99.90;;;;;;4979892;28;20681;-57
2022/11/19 06:32:35;;;;;;;19.33;12.17;;;8.20;99.90;;;;;;4979529;28;20203;-55
2022/11/19 06:35:06;;;;;;;19.07;12.10;;;8.10;99.90;;;;;;4973533;28;20202;-54
2022/11/19 06:37:34;;;;;;;19.37;11.63;;;8.20;99.90;;;;;;4973848;28;20203;-55
2022/11/19 06:40:03;;;;;;;19.33;12.37;;;8.20;99.90;;;;;;4974145;28;20232;-57
2022/11/19 06:42:37;;;;;;;20.50;11.53;;;8.10;99.90;;;;;;4975819;28;20198;-57
2022/11/19 06:45:09;;;;;;;23.43;11.63;;;8.20;99.90;;;;;;4977051;28;20224;-56
2022/11/19 06:47:38;;;;;;;19.93;11.63;;;8.10;99.90;;;;;;4996956;28;20541;-57
2022/11/19 06:50:10;;;;;;;17.53;11.77;;;8.10;99.90;;;;;;4977556;28;20223;-57
2022/11/19 06:52:39;;;;;;;24.10;12.70;;;8.10;99.90;;;;;;4987456;28;20214;-56
2022/11/19 06:55:07;;;;;;;29.70;17.00;;;8.10;99.90;;;;;;4987921;28;20196;-57
2022/11/19 06:57:36;;;;;;;35.67;19.63;;;8.20;99.90;;;;;;4989692;28;20202;-56
2022/11/19 07:00:05;;;;;;;25.87;14.90;;;8.20;99.90;;;;;;4978781;28;20219;-57
2022/11/19 07:02:33;;;;;;;22.27;12.77;;;8.10;99.90;;;;;;4971588;28;20199;-57
2022/11/19 07:05:02;;;;;;;21.27;12.97;;;8.10;99.90;;;;;;4975157;28;20232;-57
2022/11/19 07:07:32;;;;;;;20.07;13.10;;;8.10;99.90;;;;;;4970036;28;20203;-57
2022/11/19 07:10:00;;;;;;;23.77;14.23;;;8.10;99.90;;;;;;4976319;28;20199;-56
2022/11/19 07:12:28;;;;;;;24.90;14.07;;;8.10;99.90;;;;;;4980054;28;20202;-57
2022/11/19 07:14:57;;;;;;;24.83;14.20;;;8.10;99.90;;;;;;4998847;28;20537;-55
2022/11/19 07:17:31;;;;;;;23.50;14.33;;;8.10;99.90;;;;;;4985915;28;20208;-57
2022/11/19 07:20:00;;;;;;;21.70;12.93;;;8.10;99.90;;;;;;4983563;28;20242;-57
2022/11/19 07:22:28;;;;;;;25.43;15.53;;;8.20;99.90;;;;;;4980546;28;20221;-57
2022/11/19 07:24:58;;;;;;;29.80;16.87;;;8.20;99.90;;;;;;4981481;28;20657;-57
2022/11/19 07:27:26;;;;;;;26.13;15.43;;;8.20;99.90;;;;;;4975000;28;20195;-56
2022/11/19 07:29:55;;;;;;;24.07;15.30;;;8.30;99.90;;;;;;4974049;28;20204;-57
2022/11/19 07:32:23;;;;;;;25.87;15.50;;;8.30;99.90;;;;;;4974796;28;20191;-56
2022/11/19 07:34:51;;;;;;;22.10;14.67;;;8.30;99.90;;;;;;4977181;28;20212;-57
2022/11/19 07:37:20;;;;;;;26.03;15.30;;;8.30;99.90;;;;;;4975984;28;20198;-56
2022/11/19 07:39:48;;;;;;;26.50;17.27;;;8.30;99.90;;;;;;4978639;28;20196;-57
2022/11/19 07:45:04;;;;;;;28.80;16.23;;;8.30;99.90;;;;;;4982332;28;20645;-57
2022/11/19 07:47:33;;;;;;;26.20;16.27;;;8.30;99.90;;;;;;4987923;28;20276;-56
2022/11/19 07:50:02;;;;;;;28.77;18.30;;;8.30;99.90;;;;;;4986862;28;20254;-57
2022/11/19 07:52:31;;;;;;;27.53;18.10;;;8.30;99.90;;;;;;4986728;28;20194;-57
2022/11/19 07:55:00;;;;;;;29.33;19.03;;;8.30;99.90;;;;;;4980759;28;20190;-57
2022/11/19 07:57:29;;;;;;;32.70;19.23;;;8.30;99.90;;;;;;4994195;28;20566;-57
2022/11/19 07:59:58;;;;;;;22.50;14.47;;;8.30;99.90;;;;;;5014256;28;20692;-57
2022/11/19 08:02:33;;;;;;;23.53;13.90;;;8.20;99.90;;;;;;4982991;28;20203;-56
2022/11/19 08:05:02;;;;;;;35.97;18.07;;;7.90;99.90;;;;;;4983439;28;20213;-57
2022/11/19 08:07:30;;;;;;;30.03;16.47;;;7.80;99.90;;;;;;4978090;28;20578;-57
2022/11/19 08:09:58;;;;;;;18.23;12.23;;;7.70;99.90;;;;;;4980757;28;20196;-57
2022/11/19 08:12:28;;;;;;;18.80;11.93;;;7.50;99.90;;;;;;4977180;28;20197;-57
2022/11/19 08:14:57;;;;;;;19.43;11.93;;;7.40;99.90;;;;;;4986347;28;20688;-57
2022/11/19 08:20:11;;;;;;;15.47;10.97;;;7.40;99.90;;;;;;4984053;28;20241;-57
2022/11/19 08:22:41;;;;;;;13.90;9.43;;;7.30;99.90;;;;;;5000584;28;20206;-57
2022/11/19 08:25:10;;;;;;;15.73;9.70;;;7.30;99.90;;;;;;4993003;28;20203;-57
2022/11/19 08:27:40;;;;;;;15.53;9.70;;;7.20;99.90;;;;;;5000949;28;20219;-57
2022/11/19 08:30:09;;;;;;;15.87;9.80;;;7.10;99.90;;;;;;4985842;28;20650;-57
2022/11/19 08:32:37;;;;;;;12.87;9.53;;;7.10;99.90;;;;;;4981404;28;20199;-56
2022/11/19 08:35:07;;;;;;;14.60;10.07;;;7.00;99.90;;;;;;4990430;28;20210;-57
2022/11/19 08:37:35;;;;;;;15.97;11.10;;;7.00;99.90;;;;;;4977437;28;20656;-56
2022/11/19 08:40:03;;;;;;;18.30;11.67;;;6.90;99.90;;;;;;4978100;28;20205;-56
2022/11/19 08:45:21;;;;;;;16.70;11.50;;;6.80;99.90;;;;;;4972832;28;20674;-56
2022/11/19 08:47:49;;;;;;;22.20;14.70;;;6.80;99.90;;;;;;4987905;28;20224;-57
2022/11/19 08:50:17;;;;;;;22.50;12.47;;;6.80;99.90;;;;;;4983460;28;20637;-57
2022/11/19 08:52:46;;;;;;;17.97;12.03;;;6.70;99.90;;;;;;4986521;28;20207;-57
2022/11/19 08:55:14;;;;;;;22.57;13.23;;;6.70;99.90;;;;;;4983846;28;20202;-57
2022/11/19 08:57:42;;;;;;;18.50;12.50;;;6.60;99.90;;;;;;4978546;28;20194;-57
2022/11/19 09:00:12;;;;;;;23.97;14.80;;;6.50;99.90;;;;;;4974835;28;20206;-57
2022/11/19 09:02:42;;;;;;;22.53;14.30;;;6.60;99.90;;;;;;4986343;28;20696;-57
2022/11/19 09:05:10;;;;;;;18.80;12.67;;;6.60;99.90;;;;;;4987456;28;20596;-57
2022/11/19 09:07:42;;;;;;;32.50;17.07;;;6.50;99.90;;;;;;4978791;28;20624;-57
2022/11/19 09:10:10;;;;;;;26.23;15.57;;;6.50;99.90;;;;;;4979372;28;20252;-56
2022/11/19 09:12:38;;;;;;;20.33;12.87;;;6.40;99.90;;;;;;5000075;28;20206;-57
2022/11/19 09:15:08;;;;;;;18.63;11.83;;;6.40;99.90;;;;;;4978129;28;20199;-56
2022/11/19 09:17:36;;;;;;;15.93;11.10;;;6.40;99.90;;;;;;4985327;28;20279;-57
2022/11/19 09:20:12;;;;;;;17.23;10.70;;;6.30;99.90;;;;;;4979647;28;20229;-56
2022/11/19 09:22:41;;;;;;;16.40;11.40;;;6.30;99.90;;;;;;4982365;28;20221;-57
2022/11/19 09:25:09;;;;;;;12.67;9.60;;;6.30;99.90;;;;;;4988902;28;20281;-57
2022/11/19 09:27:38;;;;;;;11.37;8.50;;;6.40;99.90;;;;;;4986081;28;20210;-57
2022/11/19 09:30:08;;;;;;;11.00;8.43;;;6.30;99.90;;;;;;4989750;28;20539;-56
2022/11/19 09:32:36;;;;;;;15.00;8.33;;;6.20;99.90;;;;;;4981702;28;20203;-57
2022/11/19 09:35:05;;;;;;;10.03;8.10;;;6.10;99.90;;;;;;4987422;28;20195;-57
2022/11/19 09:37:35;;;;;;;14.83;8.33;;;6.10;99.90;;;;;;4976103;28;20196;-57
2022/11/19 09:40:04;;;;;;;14.10;8.97;;;6.00;99.90;;;;;;4992666;28;20195;-57
2022/11/19 09:42:41;;;;;;;11.20;8.73;;;5.90;99.90;;;;;;4989464;28;20675;-57
2022/11/19 09:45:18;;;;;;;12.77;9.60;;;5.70;99.90;;;;;;4980368;28;20195;-57
2022/11/19 09:48:03;;;;;;;13.60;9.63;;;5.70;99.90;;;;;;4985285;28;20640;-56
2022/11/19 09:50:44;;;;;;;15.00;11.00;;;5.70;99.90;;;;;;4971598;28;20658;-57
2022/11/19 09:53:23;;;;;;;17.60;11.57;;;5.80;99.90;;;;;;4982729;28;20803;-57
2022/11/19 09:55:53;;;;;;;17.50;10.60;;;5.70;99.90;;;;;;4983845;28;20321;-57
2022/11/19 09:58:26;;;;;;;18.77;11.00;;;5.80;99.90;;;;;;4985143;28;20207;-57
2022/11/19 10:00:55;;;;;;;15.73;10.90;;;5.80;99.90;;;;;;4980400;28;20562;-57
2022/11/19 10:03:25;;;;;;;17.17;11.47;;;5.80;99.90;;;;;;4970577;28;20651;-56
2022/11/19 10:06:27;;;;;;;14.20;10.57;;;5.80;99.90;;;;;;4970797;28;20202;-57
2022/11/19 10:09:17;;;;;;;13.87;9.77;;;5.70;99.90;;;;;;4984172;28;20222;-57
2022/11/19 10:12:00;;;;;;;13.47;10.17;;;5.60;99.90;;;;;;4981125;28;20195;-58
2022/11/19 10:14:54;;;;;;;13.00;9.57;;;5.60;99.90;;;;;;4984676;28;20599;-56
2022/11/19 10:17:33;;;;;;;15.70;10.57;;;5.50;99.90;;;;;;4980897;28;20200;-57
2022/11/19 10:20:13;;;;;;;13.93;10.20;;;5.50;99.90;;;;;;4982542;28;20226;-57
2022/11/19 10:22:51;;;;;;;15.03;10.67;;;5.50;99.90;;;;;;4982654;28;20207;-56
2022/11/19 10:25:31;;;;;;;16.57;11.33;;;5.50;99.90;;;;;;4985983;28;20202;-56
2022/11/19 10:28:10;;;;;;;16.17;11.13;;;5.50;99.90;;;;;;4974799;28;20231;-57
2022/11/19 10:30:41;;;;;;;16.53;10.90;;;5.50;99.90;;;;;;4987994;28;20191;-56
2022/11/19 10:33:17;;;;;;;20.70;13.03;;;5.50;99.90;;;;;;4986393;28;20651;-55
2022/11/19 10:35:48;;;;;;;20.70;13.20;;;5.50;99.90;;;;;;4988842;28;20229;-57
2022/11/19 10:38:21;;;;;;;20.63;12.67;;;5.50;99.90;;;;;;4973627;28;20196;-57
2022/11/19 10:40:58;;;;;;;19.37;12.67;;;5.40;99.90;;;;;;5009489;28;20195;-57
2022/11/19 10:43:32;;;;;;;25.07;14.57;;;5.40;99.90;;;;;;4969171;28;20199;-57
2022/11/19 10:46:02;;;;;;;27.73;14.87;;;5.40;99.90;;;;;;4975405;28;20286;-57
2022/11/19 10:48:38;;;;;;;24.00;13.73;;;5.40;99.90;;;;;;4985230;28;20217;-57
2022/11/19 10:51:14;;;;;;;20.27;13.03;;;5.30;99.90;;;;;;4977294;28;20186;-57
2022/11/19 10:53:44;;;;;;;19.03;12.17;;;5.30;99.90;;;;;;4994513;28;20198;-57
2022/11/19 10:56:17;;;;;;;20.17;12.43;;;5.40;99.90;;;;;;5002276;28;20198;-57
2022/11/19 10:58:49;;;;;;;19.90;12.37;;;5.40;99.90;;;;;;5002777;28;20187;-57
2022/11/19 11:01:26;;;;;;;23.47;13.27;;;5.40;99.90;;;;;;4974852;28;20191;-55
2022/11/19 11:04:05;;;;;;;24.17;13.53;;;5.40;99.90;;;;;;5040217;28;20207;-57
2022/11/19 11:06:51;;;;;;;22.63;12.97;;;5.40;99.90;;;;;;4971169;28;20618;-56
2022/11/19 11:09:33;;;;;;;22.03;14.37;;;5.30;99.90;;;;;;4983754;28;20193;-57
2022/11/19 11:15:00;;;;;;;23.17;14.10;;;5.30;99.90;;;;;;4978425;28;20206;-55
2022/11/19 11:17:33;;;;;;;26.60;14.93;;;5.30;99.90;;;;;;4994177;28;20193;-57
2022/11/19 11:20:05;;;;;;;26.00;15.20;;;5.20;99.90;;;;;;4986526;28;20254;-55
2022/11/19 11:22:36;;;;;;;27.53;15.63;;;5.30;99.90;;;;;;4976436;28;20578;-57
2022/11/19 11:25:18;;;;;;;27.37;15.53;;;5.30;99.90;;;;;;4986560;28;20195;-57
2022/11/19 11:28:05;;;;;;;29.00;15.10;;;5.40;99.90;;;;;;4992739;28;20206;-56
2022/11/19 11:30:34;;;;;;;26.47;14.77;;;5.30;99.90;;;;;;4995294;28;20568;-57
2022/11/19 11:33:27;;;;;;;25.83;14.83;;;5.30;99.90;;;;;;4980890;28;20210;-57
2022/11/19 11:35:57;;;;;;;32.00;16.90;;;5.30;99.90;;;;;;4991645;28;20225;-57
2022/11/19 11:38:27;;;;;;;31.60;16.97;;;5.30;99.90;;;;;;5002436;28;20204;-56
2022/11/19 11:41:05;;;;;;;28.90;15.27;;;5.30;99.90;;;;;;4986323;28;20217;-57
2022/11/19 11:44:03;;;;;;;27.77;15.00;;;5.20;99.90;;;;;;5013150;28;20203;-57
2022/11/19 11:46:43;;;;;;;28.30;15.30;;;5.20;99.90;;;;;;4999926;28;20196;-57
2022/11/19 11:49:23;;;;;;;28.07;15.70;;;5.20;99.90;;;;;;4983088;28;20226;-56
2022/11/19 11:52:01;;;;;;;31.63;17.23;;;5.20;99.90;;;;;;4982722;28;20213;-57
2022/11/19 11:54:30;;;;;;;33.57;17.33;;;5.20;99.90;;;;;;4976082;28;20696;-57
2022/11/19 11:57:19;;;;;;;32.33;17.77;;;5.20;99.90;;;;;;4972468;28;20214;-55
2022/11/19 11:59:49;;;;;;;34.27;18.00;;;5.10;99.90;;;;;;4973957;28;20195;-55
2022/11/19 12:02:28;;;;;;;35.07;18.63;;;5.00;99.90;;;;;;4985875;28;20495;-57
2022/11/19 12:05:01;;;;;;;39.13;19.37;;;5.00;99.90;;;;;;4972801;28;20285;-57
2022/11/19 12:07:47;;;;;;;43.43;20.47;;;5.00;99.90;;;;;;4984365;28;20233;-57
2022/11/19 12:10:25;;;;;;;40.40;19.60;;;5.00;99.90;;;;;;4974568;28;20195;-58
2022/11/19 12:13:21;;;;;;;41.00;19.83;;;4.90;99.90;;;;;;4976636;28;20199;-57
2022/11/19 12:15:58;;;;;;;41.30;20.67;;;4.90;99.90;;;;;;4985121;28;20589;-56
2022/11/19 12:18:38;;;;;;;41.87;22.43;;;4.80;99.90;;;;;;4984209;28;20198;-56
2022/11/19 12:21:10;;;;;;;42.83;22.13;;;4.80;99.90;;;;;;4988280;28;20214;-57
2022/11/19 12:23:58;;;;;;;46.80;21.53;;;4.90;99.90;;;;;;4986578;28;20198;-57
2022/11/19 12:26:40;;;;;;;45.23;21.80;;;4.80;99.90;;;;;;4977548;28;20199;-57
2022/11/19 12:29:20;;;;;;;47.00;23.53;;;4.90;99.90;;;;;;4980697;28;20586;-57
2022/11/19 12:32:15;;;;;;;48.73;23.43;;;4.90;99.90;;;;;;4976950;28;20202;-56
2022/11/19 12:35:15;;;;;;;49.37;22.43;;;4.80;99.90;;;;;;4991317;28;20202;-57
2022/11/19 12:38:07;;;;;;;49.97;21.63;;;4.70;99.90;;;;;;4988154;28;20194;-55
2022/11/19 12:40:45;;;;;;;48.40;23.10;;;4.70;99.90;;;;;;4981335;28;20191;-57
2022/11/19 12:43:44;;;;;;;50.63;24.07;;;4.80;99.90;;;;;;4989104;28;20202;-56
2022/11/19 12:46:20;;;;;;;46.10;22.33;;;4.80;99.90;;;;;;4984936;28;20215;-57
2022/11/19 12:49:02;;;;;;;50.30;23.13;;;4.70;99.90;;;;;;4986700;28;20202;-57
2022/11/19 12:51:46;;;;;;;48.00;21.67;;;4.70;99.90;;;;;;5000721;28;20199;-56
2022/11/19 12:54:35;;;;;;;43.93;22.27;;;4.80;99.90;;;;;;4983959;28;20606;-57
2022/11/19 12:57:22;;;;;;;49.50;23.50;;;4.70;99.90;;;;;;4990511;28;20596;-57
2022/11/19 13:00:09;;;;;;;46.00;23.00;;;4.70;99.90;;;;;;4987883;28;20191;-57
2022/11/19 13:02:48;;;;;;;51.33;23.70;;;4.70;99.90;;;;;;4971056;28;20210;-57
2022/11/19 13:05:20;;;;;;;48.57;23.07;;;4.70;99.90;;;;;;4985595;28;20214;-57
2022/11/19 13:07:56;;;;;;;53.67;24.27;;;4.70;99.90;;;;;;4979349;28;20199;-57
2022/11/19 13:10:28;;;;;;;54.40;25.40;;;4.60;99.90;;;;;;4972198;28;20214;-55
2022/11/19 13:13:00;;;;;;;54.50;23.57;;;4.60;99.90;;;;;;4990690;28;20206;-56
2022/11/19 13:15:32;;;;;;;55.00;23.87;;;4.60;99.90;;;;;;4973224;28;20257;-56
2022/11/19 13:18:04;;;;;;;49.30;23.40;;;4.60;99.90;;;;;;4978746;28;20269;-57
2022/11/19 13:20:44;;;;;;;50.13;23.60;;;4.60;99.90;;;;;;4969843;28;20384;-57
2022/11/19 13:23:19;;;;;;;55.13;24.17;;;4.60;99.90;;;;;;4971076;28;20594;-57
2022/11/19 13:25:56;;;;;;;44.13;21.07;;;4.60;99.90;;;;;;4971047;28;20191;-56
2022/11/19 13:28:32;;;;;;;49.47;23.37;;;4.50;99.90;;;;;;4979316;28;20720;-58
2022/11/19 13:31:07;;;;;;;51.83;24.40;;;4.50;99.90;;;;;;4968727;28;20325;-57
2022/11/19 13:33:44;;;;;;;47.80;22.07;;;4.60;99.90;;;;;;5003837;28;20199;-56
2022/11/19 13:36:18;;;;;;;44.53;21.73;;;4.60;99.90;;;;;;4979107;28;20226;-56